createdAt,value
2023-02-16T00:01:29.612Z,128.27
2023-02-16T00:03:57.923Z,165.03
2023-02-16T00:06:26.950Z,269.07
2023-02-16T00:08:57.136Z,236.07
2023-02-16T00:11:46.814Z,266.20
2023-02-16T00:14:16.708Z,172.13
2023-02-16T00:16:44.621Z,209.07
2023-02-16T00:19:20.688Z,107.47
2023-02-16T00:21:49.228Z,263.47
2023-02-16T00:24:17.029Z,302.07
2023-02-16T00:26:45.576Z,215.27
2023-02-16T00:29:20.708Z,289.17
2023-02-16T00:31:48.787Z,352.73
2023-02-16T00:34:27.354Z,230.97
2023-02-16T00:36:56.474Z,183.50
2023-02-16T00:39:25.963Z,179.73
2023-02-16T00:41:54.861Z,132.00
2023-02-16T00:44:31.234Z,290.93
2023-02-16T00:47:00.322Z,84.53
2023-02-16T00:49:27.953Z,166.43
2023-02-16T00:52:01.085Z,178.03
2023-02-16T00:54:30.926Z,161.90
2023-02-16T00:56:59.890Z,89.10
2023-02-16T00:59:29.906Z,133.10
2023-02-16T01:01:58.245Z,104.13
2023-02-16T01:04:26.135Z,82.57
2023-02-16T01:07:11.624Z,87.07
2023-02-16T01:09:56.763Z,78.73
2023-02-16T01:12:24.433Z,169.43
2023-02-16T01:14:56.415Z,50.37
2023-02-16T01:17:25.328Z,31.27
2023-02-16T01:19:53.816Z,93.73
2023-02-16T01:22:21.529Z,58.53
2023-02-16T01:24:50.245Z,92.33
2023-02-16T01:27:17.937Z,77.57
2023-02-16T01:29:45.634Z,73.43
2023-02-16T01:32:14.958Z,56.00
2023-02-16T01:34:42.882Z,87.30
2023-02-16T01:37:15.570Z,64.00
2023-02-16T01:39:43.334Z,61.57
2023-02-16T01:42:18.185Z,77.30
2023-02-16T01:44:48.684Z,81.33
2023-02-16T01:47:29.031Z,30.23
2023-02-16T01:49:57.025Z,72.63
2023-02-16T01:52:28.370Z,67.17
2023-02-16T01:55:01.103Z,66.40
2023-02-16T01:57:35.092Z,47.17
2023-02-16T02:00:08.473Z,58.17
2023-02-16T02:02:39.599Z,43.03
2023-02-16T02:05:29.814Z,37.90
2023-02-16T02:08:00.228Z,39.93
2023-02-16T02:10:33.295Z,49.63
2023-02-16T02:13:05.124Z,47.03
2023-02-16T02:15:33.804Z,102.67
2023-02-16T02:18:03.419Z,34.33
2023-02-16T02:20:56.280Z,40.87
2023-02-16T02:23:38.216Z,27.27
2023-02-16T02:26:44.725Z,30.60
2023-02-16T02:29:40.715Z,65.07
2023-02-16T02:32:14.932Z,60.80
2023-02-16T02:34:55.754Z,81.27
2023-02-16T02:37:30.967Z,103.63
2023-02-16T02:40:04.849Z,54.10
2023-02-16T02:42:36.138Z,69.17
2023-02-16T02:45:09.298Z,54.83
2023-02-16T02:47:41.111Z,24.73
2023-02-16T02:50:38.287Z,50.13
2023-02-16T02:53:07.802Z,76.10
2023-02-16T02:55:55.627Z,58.20
2023-02-16T02:58:43.025Z,71.63
2023-02-16T03:01:13.096Z,61.00
2023-02-16T03:03:43.817Z,36.50
2023-02-16T03:06:15.596Z,53.97
2023-02-16T03:08:47.017Z,161.60
2023-02-16T03:11:34.532Z,87.73
2023-02-16T03:14:06.055Z,84.80
2023-02-16T03:16:38.717Z,84.23
2023-02-16T03:19:26.150Z,61.70
2023-02-16T03:22:11.472Z,86.03
2023-02-16T03:24:56.823Z,67.90
2023-02-16T03:27:45.121Z,78.77
2023-02-16T03:30:14.454Z,58.20
2023-02-16T03:32:44.935Z,80.93
2023-02-16T03:35:13.424Z,68.43
2023-02-16T03:37:41.600Z,35.17
2023-02-16T03:40:33.210Z,63.30
2023-02-16T03:43:02.474Z,118.57
2023-02-16T03:45:31.469Z,76.67
2023-02-16T03:48:00.617Z,67.27
2023-02-16T03:50:28.793Z,73.70
2023-02-16T03:53:07.094Z,113.93
2023-02-16T03:55:36.022Z,79.07
2023-02-16T03:58:03.823Z,76.03
2023-02-16T04:00:32.070Z,57.40
2023-02-16T04:03:01.072Z,80.90
2023-02-16T04:05:29.149Z,72.83
2023-02-16T04:07:57.009Z,87.80
2023-02-16T04:10:25.265Z,47.80
2023-02-16T04:12:51.878Z,32.73
2023-02-16T04:15:21.061Z,33.07
2023-02-16T04:17:49.254Z,51.77
2023-02-16T04:20:20.365Z,44.83
2023-02-16T04:22:49.044Z,79.83
2023-02-16T04:25:17.647Z,24.97
2023-02-16T04:27:45.549Z,27.80
2023-02-16T04:30:15.244Z,30.50
2023-02-16T04:32:43.037Z,24.67
2023-02-16T04:35:11.162Z,25.60
2023-02-16T04:37:40.425Z,46.23
2023-02-16T04:40:11.052Z,50.30
2023-02-16T04:42:38.816Z,62.03
2023-02-16T04:45:07.218Z,42.30
2023-02-16T04:47:35.041Z,40.03
2023-02-16T04:50:02.857Z,37.83
2023-02-16T04:52:30.731Z,40.93
2023-02-16T04:54:59.736Z,34.47
2023-02-16T04:57:27.459Z,55.63
2023-02-16T04:59:55.228Z,25.63
2023-02-16T05:02:22.929Z,32.33
2023-02-16T05:04:50.608Z,31.83
2023-02-16T05:07:18.271Z,37.30
2023-02-16T05:09:45.918Z,45.13
2023-02-16T05:12:32.551Z,31.60
2023-02-16T05:15:00.228Z,56.10
2023-02-16T05:17:28.532Z,89.57
2023-02-16T05:19:57.866Z,24.00
2023-02-16T05:22:26.282Z,93.43
2023-02-16T05:24:53.887Z,50.27
2023-02-16T05:27:24.589Z,56.30
2023-02-16T05:29:52.263Z,38.13
2023-02-16T05:32:20.145Z,25.17
2023-02-16T05:34:48.192Z,44.57
2023-02-16T05:37:17.262Z,95.83
2023-02-16T05:39:45.389Z,24.87
2023-02-16T05:42:13.042Z,50.37
2023-02-16T05:44:42.028Z,55.67
2023-02-16T05:47:09.847Z,65.10
2023-02-16T05:49:37.477Z,32.37
2023-02-16T05:52:05.135Z,49.33
2023-02-16T05:54:32.830Z,57.57
2023-02-16T05:57:00.535Z,50.73
2023-02-16T05:59:28.115Z,32.10
2023-02-16T06:01:57.154Z,27.40
2023-02-16T06:04:24.900Z,26.57
2023-02-16T06:06:52.534Z,29.47
2023-02-16T06:09:20.289Z,53.37
2023-02-16T06:11:47.978Z,36.57
2023-02-16T06:14:17.554Z,30.73
2023-02-16T06:16:47.381Z,26.00
2023-02-16T06:19:17.068Z,21.20
2023-02-16T06:21:45.209Z,32.63
2023-02-16T06:24:14.264Z,29.63
2023-02-16T06:26:42.378Z,39.73
2023-02-16T06:29:10.594Z,70.40
2023-02-16T06:31:38.538Z,47.90
2023-02-16T06:34:06.749Z,45.63
2023-02-16T06:36:41.279Z,32.23
2023-02-16T06:39:10.014Z,35.60
2023-02-16T06:41:40.366Z,43.97
2023-02-16T06:44:10.115Z,36.30
2023-02-16T06:46:37.939Z,32.80
2023-02-16T06:49:05.759Z,28.77
2023-02-16T06:51:34.943Z,61.47
2023-02-16T06:54:02.566Z,32.03
2023-02-16T06:56:30.282Z,55.17
2023-02-16T06:58:58.054Z,47.27
2023-02-16T07:01:26.147Z,45.60
2023-02-16T07:03:54.838Z,33.40
2023-02-16T07:06:23.399Z,56.33
2023-02-16T07:08:52.795Z,110.10
2023-02-16T07:11:20.476Z,44.97
2023-02-16T07:13:48.300Z,46.77
2023-02-16T07:16:16.536Z,45.67
2023-02-16T07:18:44.261Z,28.83
2023-02-16T07:21:11.963Z,37.13
2023-02-16T07:23:39.574Z,66.83
2023-02-16T07:26:08.553Z,43.97
2023-02-16T07:28:36.328Z,34.30
2023-02-16T07:31:08.439Z,46.90
2023-02-16T07:33:36.352Z,41.83
2023-02-16T07:36:04.568Z,23.37
2023-02-16T07:38:32.250Z,69.23
2023-02-16T07:41:00.090Z,84.67
2023-02-16T07:43:29.188Z,155.20
2023-02-16T07:45:56.956Z,57.83
2023-02-16T07:48:25.129Z,22.17
2023-02-16T07:50:52.923Z,39.50
2023-02-16T07:53:20.498Z,294.50
2023-02-16T07:55:48.206Z,90.60
2023-02-16T07:58:27.060Z,44.60
2023-02-16T08:00:57.665Z,42.13
2023-02-16T08:03:25.457Z,32.03
2023-02-16T08:05:53.215Z,34.53
2023-02-16T08:08:20.856Z,32.07
2023-02-16T08:10:48.499Z,48.53
2023-02-16T08:13:16.135Z,63.50
2023-02-16T08:15:44.493Z,70.30
2023-02-16T08:18:13.464Z,55.97
2023-02-16T08:21:01.369Z,29.97
2023-02-16T08:23:29.537Z,33.20
2023-02-16T08:25:59.653Z,69.07
2023-02-16T08:28:29.123Z,80.13
2023-02-16T08:30:56.958Z,59.47
2023-02-16T08:33:26.009Z,39.73
2023-02-16T08:35:53.608Z,35.70
2023-02-16T08:38:21.756Z,65.87
2023-02-16T08:40:49.676Z,49.07
2023-02-16T08:43:17.454Z,39.87
2023-02-16T08:45:45.358Z,42.33
2023-02-16T08:48:12.978Z,56.60
2023-02-16T08:50:47.494Z,32.27
2023-02-16T08:53:15.414Z,55.53
2023-02-16T08:55:43.052Z,71.83
2023-02-16T08:58:10.796Z,63.77
2023-02-16T09:00:39.000Z,65.57
2023-02-16T09:03:06.929Z,70.23
2023-02-16T09:05:35.313Z,44.80
2023-02-16T09:08:04.436Z,26.67
2023-02-16T09:10:32.143Z,71.80
2023-02-16T09:12:59.961Z,24.30
2023-02-16T09:15:27.612Z,42.77
2023-02-16T09:17:55.288Z,36.93
2023-02-16T09:20:23.349Z,52.83
2023-02-16T09:22:51.338Z,51.97
2023-02-16T09:25:20.574Z,36.20
2023-02-16T09:27:48.250Z,56.03
2023-02-16T09:30:16.300Z,100.23
2023-02-16T09:32:44.082Z,40.87
2023-02-16T09:35:12.220Z,56.90
2023-02-16T09:37:39.822Z,68.07
2023-02-16T09:40:08.950Z,19.93
2023-02-16T09:42:50.648Z,35.60
2023-02-16T09:45:20.434Z,19.07
2023-02-16T09:47:49.761Z,22.70
2023-02-16T09:50:27.770Z,36.60
2023-02-16T09:53:03.558Z,24.07
2023-02-16T09:55:40.044Z,23.73
2023-02-16T09:58:14.755Z,31.83
2023-02-16T10:00:47.571Z,24.67
2023-02-16T10:03:34.092Z,25.73
2023-02-16T10:06:07.535Z,25.97
2023-02-16T10:08:39.002Z,46.77
2023-02-16T10:11:31.639Z,21.67
2023-02-16T10:14:04.023Z,22.30
2023-02-16T10:16:38.962Z,23.23
2023-02-16T10:19:16.101Z,20.83
2023-02-16T10:21:45.848Z,42.10
2023-02-16T10:24:14.691Z,21.23
2023-02-16T10:26:46.325Z,28.20
2023-02-16T10:29:16.907Z,51.20
2023-02-16T10:31:49.692Z,23.60
2023-02-16T10:34:23.374Z,22.67
2023-02-16T10:37:07.427Z,49.47
2023-02-16T10:39:40.094Z,22.40
2023-02-16T10:42:16.454Z,36.03
2023-02-16T10:44:48.847Z,23.30
2023-02-16T10:47:31.195Z,66.80
2023-02-16T10:49:59.033Z,62.40
2023-02-16T10:52:29.233Z,24.40
2023-02-16T10:54:56.965Z,25.53
2023-02-16T10:57:27.676Z,27.27
2023-02-16T10:59:58.533Z,23.50
2023-02-16T11:02:27.746Z,41.50
2023-02-16T11:04:56.962Z,24.80
2023-02-16T11:07:26.897Z,26.20
2023-02-16T11:09:56.240Z,26.60
2023-02-16T11:12:29.871Z,47.97
2023-02-16T11:15:03.187Z,31.83
2023-02-16T11:17:32.207Z,34.40
2023-02-16T11:20:02.244Z,32.17
2023-02-16T11:22:32.867Z,32.57
2023-02-16T11:25:23.416Z,31.07
2023-02-16T11:27:53.735Z,27.77
2023-02-16T11:30:32.561Z,43.47
2023-02-16T11:33:02.080Z,48.70
2023-02-16T11:35:32.787Z,44.20
2023-02-16T11:38:00.975Z,50.87
2023-02-16T11:40:30.879Z,35.87
2023-02-16T11:43:00.061Z,49.60
2023-02-16T11:45:31.591Z,36.00
2023-02-16T11:48:02.219Z,43.97
2023-02-16T11:50:32.006Z,30.60
2023-02-16T11:53:15.891Z,32.20
2023-02-16T11:55:46.159Z,26.13
2023-02-16T11:58:18.621Z,27.97
2023-02-16T12:00:58.391Z,51.93
2023-02-16T12:03:46.522Z,27.07
2023-02-16T12:06:28.787Z,28.10
2023-02-16T12:09:04.791Z,33.63
2023-02-16T12:11:39.599Z,25.57
2023-02-16T12:14:23.845Z,27.20
2023-02-16T12:16:59.452Z,25.90
2023-02-16T12:19:38.250Z,28.57
2023-02-16T12:22:10.668Z,36.27
2023-02-16T12:24:48.011Z,25.57
2023-02-16T12:27:19.332Z,29.57
2023-02-16T12:29:53.733Z,30.53
2023-02-16T12:32:34.803Z,26.93
2023-02-16T12:35:13.724Z,30.80
2023-02-16T12:37:44.892Z,26.87
2023-02-16T12:40:18.741Z,30.70
2023-02-16T12:42:59.972Z,31.27
2023-02-16T12:45:29.180Z,29.30
2023-02-16T12:48:01.232Z,29.50
2023-02-16T12:50:30.591Z,27.70
2023-02-16T12:53:01.267Z,28.77
2023-02-16T12:55:32.658Z,30.33
2023-02-16T12:58:04.760Z,35.47
2023-02-16T13:00:46.455Z,30.03
2023-02-16T13:03:26.173Z,35.80
2023-02-16T13:06:01.445Z,29.27
2023-02-16T13:08:39.164Z,28.80
2023-02-16T13:11:12.378Z,35.87
2023-02-16T13:13:41.359Z,31.43
2023-02-16T13:16:28.723Z,27.60
2023-02-16T13:18:59.202Z,30.80
2023-02-16T13:21:53.718Z,29.23
2023-02-16T13:24:30.260Z,29.37
2023-02-16T13:27:08.603Z,26.13
2023-02-16T13:29:55.942Z,29.30
2023-02-16T13:32:45.899Z,26.57
2023-02-16T13:35:55.051Z,28.57
2023-02-16T13:38:37.428Z,25.20
2023-02-16T13:41:13.840Z,27.00
2023-02-16T13:43:42.582Z,25.13
2023-02-16T13:46:17.511Z,25.57
2023-02-16T13:48:48.646Z,33.23
2023-02-16T13:51:20.505Z,28.17
2023-02-16T13:53:53.940Z,26.03
2023-02-16T13:56:24.287Z,28.90
2023-02-16T13:58:52.931Z,25.50
2023-02-16T14:01:43.057Z,25.33
2023-02-16T14:04:35.962Z,25.50
2023-02-16T14:07:23.734Z,25.97
2023-02-16T14:09:51.445Z,25.10
2023-02-16T14:12:22.046Z,25.03
2023-02-16T14:15:01.894Z,25.23
2023-02-16T14:17:31.752Z,25.83
2023-02-16T14:20:00.986Z,28.17
2023-02-16T14:22:51.388Z,28.83
2023-02-16T14:25:39.201Z,26.93
2023-02-16T14:28:22.740Z,28.23
2023-02-16T14:30:52.920Z,26.30
2023-02-16T14:33:24.224Z,27.90
2023-02-16T14:36:08.971Z,28.10
2023-02-16T14:38:39.090Z,27.97
2023-02-16T14:41:08.762Z,28.47
2023-02-16T14:43:42.181Z,26.47
2023-02-16T14:46:24.867Z,26.27
2023-02-16T14:49:38.483Z,25.87
2023-02-16T14:52:37.067Z,23.97
2023-02-16T14:55:33.622Z,22.97
2023-02-16T14:58:05.063Z,22.87
2023-02-16T15:00:36.544Z,24.33
2023-02-16T15:03:07.013Z,24.57
2023-02-16T15:05:37.802Z,23.07
2023-02-16T15:08:11.148Z,22.00
2023-02-16T15:10:41.080Z,26.37
2023-02-16T15:13:09.752Z,21.97
2023-02-16T15:15:45.690Z,21.87
2023-02-16T15:18:17.231Z,23.13
2023-02-16T15:20:46.147Z,24.30
2023-02-16T15:23:19.196Z,24.13
2023-02-16T15:25:56.541Z,23.47
2023-02-16T15:28:27.114Z,23.93
2023-02-16T15:30:56.758Z,26.43
2023-02-16T15:33:30.559Z,21.67
2023-02-16T15:36:00.240Z,23.17
2023-02-16T15:38:31.678Z,21.57
2023-02-16T15:41:03.877Z,22.50
2023-02-16T15:43:33.843Z,21.77
2023-02-16T15:46:03.800Z,23.57
2023-02-16T15:48:33.538Z,24.03
2023-02-16T15:51:15.487Z,25.43
2023-02-16T15:53:48.229Z,23.47
2023-02-16T15:56:42.002Z,23.37
2023-02-16T15:59:27.845Z,24.43
2023-02-16T16:02:01.000Z,25.03
2023-02-16T16:04:29.826Z,23.30
2023-02-16T16:06:58.012Z,32.33
2023-02-16T16:09:27.705Z,29.23
2023-02-16T16:11:58.745Z,28.93
2023-02-16T16:14:27.628Z,29.83
2023-02-16T16:16:56.280Z,26.47
2023-02-16T16:19:27.298Z,22.47
2023-02-16T16:21:55.884Z,24.87
2023-02-16T16:24:38.245Z,24.60
2023-02-16T16:27:09.463Z,26.23
2023-02-16T16:29:41.167Z,25.03
2023-02-16T16:32:18.778Z,23.37
2023-02-16T16:34:46.985Z,24.13
2023-02-16T16:37:27.388Z,31.73
2023-02-16T16:40:08.487Z,29.50
2023-02-16T16:42:39.081Z,28.23
2023-02-16T16:45:08.379Z,25.93
2023-02-16T16:47:38.973Z,29.47
2023-02-16T16:50:23.932Z,30.67
2023-02-16T16:52:52.040Z,28.90
2023-02-16T16:55:37.434Z,37.90
2023-02-16T16:58:08.406Z,31.90
2023-02-16T17:00:38.400Z,31.63
2023-02-16T17:03:08.077Z,34.53
2023-02-16T17:05:38.258Z,37.60
2023-02-16T17:08:06.157Z,31.03
2023-02-16T17:10:33.980Z,35.03
2023-02-16T17:13:02.989Z,34.83
2023-02-16T17:15:37.213Z,43.60
2023-02-16T17:18:05.794Z,39.57
2023-02-16T17:20:33.670Z,35.30
2023-02-16T17:23:04.584Z,40.00
2023-02-16T17:25:34.080Z,37.53
2023-02-16T17:28:01.838Z,37.13
2023-02-16T17:30:29.543Z,39.60
2023-02-16T17:32:58.866Z,30.53
2023-02-16T17:35:26.650Z,32.93
2023-02-16T17:37:54.284Z,29.93
2023-02-16T17:40:23.409Z,31.80
2023-02-16T17:42:51.359Z,38.53
2023-02-16T17:45:21.801Z,34.33
2023-02-16T17:47:51.898Z,35.73
2023-02-16T17:50:22.113Z,30.50
2023-02-16T17:52:49.860Z,31.33
2023-02-16T17:55:17.687Z,34.23
2023-02-16T17:57:45.652Z,32.40
2023-02-16T18:00:18.504Z,31.27
2023-02-16T18:02:46.100Z,30.53
2023-02-16T18:05:14.035Z,29.53
2023-02-16T18:07:43.266Z,31.47
2023-02-16T18:10:22.097Z,33.40
2023-02-16T18:12:49.913Z,34.37
2023-02-16T18:15:17.967Z,31.93
2023-02-16T18:17:45.614Z,27.03
2023-02-16T18:20:15.782Z,31.23
2023-02-16T18:22:45.170Z,27.07
2023-02-16T18:25:12.933Z,28.53
2023-02-16T18:27:40.605Z,27.57
2023-02-16T18:30:09.925Z,28.87
2023-02-16T18:32:38.041Z,28.50
2023-02-16T18:35:06.617Z,31.33
2023-02-16T18:37:34.388Z,31.20
2023-02-16T18:40:03.678Z,30.30
2023-02-16T18:42:31.364Z,30.80
2023-02-16T18:44:59.148Z,33.80
2023-02-16T18:47:26.811Z,30.17
2023-02-16T18:49:54.489Z,25.87
2023-02-16T18:52:22.104Z,27.13
2023-02-16T18:54:49.830Z,29.77
2023-02-16T18:57:18.796Z,35.20
2023-02-16T18:59:46.566Z,32.93
2023-02-16T19:02:14.204Z,48.07
2023-02-16T19:04:42.177Z,52.33
2023-02-16T19:07:10.076Z,40.90
2023-02-16T19:09:37.779Z,54.63
2023-02-16T19:12:05.788Z,83.83
2023-02-16T19:14:34.799Z,74.30
2023-02-16T19:17:02.443Z,50.03
2023-02-16T19:19:32.032Z,36.77
2023-02-16T19:21:59.782Z,32.43
2023-02-16T19:24:27.461Z,33.23
2023-02-16T19:26:55.124Z,35.50
2023-02-16T19:29:22.875Z,32.53
2023-02-16T19:31:52.018Z,38.30
2023-02-16T19:34:19.978Z,30.20
2023-02-16T19:36:48.276Z,31.33
2023-02-16T19:39:15.980Z,27.67
2023-02-16T19:41:44.613Z,25.87
2023-02-16T19:44:14.078Z,26.73
2023-02-16T19:46:42.330Z,29.37
2023-02-16T19:49:14.320Z,28.90
2023-02-16T19:51:42.008Z,29.17
2023-02-16T19:54:09.881Z,30.03
2023-02-16T19:56:40.449Z,30.27
2023-02-16T19:59:09.711Z,28.87
2023-02-16T20:01:37.682Z,36.63
2023-02-16T20:04:05.679Z,25.20
2023-02-16T20:06:37.214Z,26.03
2023-02-16T20:09:05.057Z,24.37
2023-02-16T20:11:33.179Z,25.70
2023-02-16T20:14:00.943Z,26.60
2023-02-16T20:16:28.973Z,24.67
2023-02-16T20:18:57.664Z,23.93
2023-02-16T20:21:27.138Z,22.90
2023-02-16T20:23:57.534Z,25.67
2023-02-16T20:26:27.121Z,30.83
2023-02-16T20:28:55.098Z,31.33
2023-02-16T20:31:26.888Z,28.80
2023-02-16T20:33:54.879Z,29.90
2023-02-16T20:36:22.849Z,38.53
2023-02-16T20:38:51.151Z,62.03
2023-02-16T20:41:21.046Z,58.43
2023-02-16T20:43:49.297Z,42.77
2023-02-16T20:46:17.946Z,38.27
2023-02-16T20:48:46.244Z,35.90
2023-02-16T20:51:15.436Z,33.07
2023-02-16T20:53:43.162Z,33.67
2023-02-16T20:56:14.774Z,24.83
2023-02-16T20:58:45.614Z,22.40
2023-02-16T21:01:14.718Z,24.63
2023-02-16T21:03:42.660Z,25.33
2023-02-16T21:06:10.356Z,28.70
2023-02-16T21:08:38.011Z,23.93
2023-02-16T21:11:06.087Z,33.80
2023-02-16T21:13:33.965Z,28.17
2023-02-16T21:16:03.208Z,25.20
2023-02-16T21:18:31.227Z,21.43
2023-02-16T21:21:00.144Z,19.27
2023-02-16T21:23:28.045Z,20.77
2023-02-16T21:25:58.894Z,20.17
2023-02-16T21:28:26.558Z,19.63
2023-02-16T21:30:54.426Z,21.40
2023-02-16T21:33:23.656Z,20.60
2023-02-16T21:35:51.320Z,24.67
2023-02-16T21:38:19.225Z,23.07
2023-02-16T21:41:04.367Z,21.33
2023-02-16T21:43:32.075Z,24.37
2023-02-16T21:46:00.628Z,20.73
2023-02-16T21:48:47.181Z,22.23
2023-02-16T21:51:15.849Z,18.13
2023-02-16T21:53:43.594Z,21.83
2023-02-16T21:56:23.263Z,21.17
2023-02-16T21:58:51.019Z,18.87
2023-02-16T22:01:22.903Z,19.37
2023-02-16T22:03:56.069Z,19.07
2023-02-16T22:06:25.387Z,24.10
2023-02-16T22:08:53.589Z,17.13
2023-02-16T22:11:21.257Z,23.90
2023-02-16T22:13:52.868Z,20.30
2023-02-16T22:16:21.050Z,18.70
2023-02-16T22:18:49.094Z,22.23
2023-02-16T22:21:18.379Z,17.13
2023-02-16T22:23:47.403Z,17.00
2023-02-16T22:26:22.951Z,18.60
2023-02-16T22:28:50.696Z,22.50
2023-02-16T22:31:19.428Z,17.00
2023-02-16T22:33:47.144Z,18.97
2023-02-16T22:36:15.801Z,17.90
2023-02-16T22:38:45.218Z,21.30
2023-02-16T22:41:13.694Z,16.70
2023-02-16T22:43:41.807Z,20.27
2023-02-16T22:46:12.363Z,20.07
2023-02-16T22:48:40.040Z,16.77
2023-02-16T22:51:09.978Z,19.30
2023-02-16T22:53:37.812Z,19.33
2023-02-16T22:56:07.877Z,19.30
2023-02-16T22:58:36.127Z,17.60
2023-02-16T23:01:03.965Z,20.07
2023-02-16T23:03:31.980Z,17.70
2023-02-16T23:05:59.645Z,17.07
2023-02-16T23:08:27.371Z,19.20
2023-02-16T23:11:00.961Z,20.33
2023-02-16T23:13:32.860Z,16.30
2023-02-16T23:16:05.116Z,18.80
2023-02-16T23:18:33.288Z,19.43
2023-02-16T23:21:06.081Z,18.43
2023-02-16T23:23:33.842Z,20.37
2023-02-16T23:26:01.716Z,20.80
2023-02-16T23:28:30.825Z,18.93
2023-02-16T23:30:58.732Z,19.70
2023-02-16T23:33:26.558Z,20.27
2023-02-16T23:35:54.202Z,19.77
2023-02-16T23:38:22.005Z,16.17
2023-02-16T23:40:57.090Z,18.10
2023-02-16T23:43:25.066Z,17.47
2023-02-16T23:45:55.007Z,17.77
2023-02-16T23:48:23.470Z,16.93
2023-02-16T23:50:51.417Z,15.40
2023-02-16T23:53:19.364Z,17.17
2023-02-16T23:55:57.747Z,15.63
2023-02-16T23:58:26.880Z,20.30
